KSUN

Friedman Memorial Airport

Hailey, Idaho, USA
METAR KSUN 161155Z AUTO 31009KT 10SM CLR M01/M04 A3042 RMK AO2
Observed Flight Rules
Oct-16 @ 11:55 UTC (32 minutes ago) Visual Flight Rules
Wind Visibility Clouds
310° at 9 knots 10 miles
  • Clear skies
Temperatures Readings
Current -1°C / 30°F
Dewpoint -4°C / 25°F
Humidity 80%
Altimeter 30.42" Hg
Pressure 1030 hPa
Elevation 1620
METAR KSUN 161155Z AUTO 31009KT 10SM CLR M01/M04 A3042 RMK AO2
Observed Flight Rules
Oct-16 @ 11:55 UTC
(32 minutes ago)
VFR
Wind Visibility
310° at 9 knots 10 miles
Clouds
  • Clear skies
Temperature Dewpoint
-1°C / 30°F -4°C / 25°F
Humidity Altimeter Pressure
80% 30.42" Hg 1030 hPa